Little Deer Isle, ME (04650)

11:38 PM EST on February 10, 2016 (GMT -0500)
APRSWXNET | | Change Station
CLOSE
Current Station
Personal Weather Station
Location: Deer Isle, ME
Elevation: 166 ft
Nearby Weather Stations

Elev 166 ft 44.24 °N, 68.67 °W | Updated 36 minutes ago

Overcast
Overcast
28 °F
Feels Like 28 °F
N
0
Wind Variable Wind from North
Gusts 0.0 mph

Today
High -- | Low -- °F
--% Chance of Precip.
Yesterday
High -- | Low -- °F
Precip. -- in
Pressure 29.55 in
Visibility 10.0 miles
Clouds Mostly Cloudy 600 ft
Mostly Cloudy 2300 ft
Overcast 2900 ft
Windchill 28 °F
Dew Point 27 °F
Humidity 96%
Rainfall in
Snow Depth Not available.
6:42 AM 4:56 PM
Waxing Crescent, 9% visible
METAR KBHB 110435Z 00000KT 10SM BKN006 BKN023 OVC029 M01/M02 A2955 RMK AO1
Pressure 29.55 in
Visibility 10.0 miles
Clouds Mostly Cloudy 600 ft
Mostly Cloudy 2300 ft
Overcast 2900 ft
Windchill 28 °F
Dew Point 27 °F
Humidity 96%
Rainfall in
Snow Depth Not available.
6:42 AM 4:56 PM
Waxing Crescent, 9% visible
METAR KBHB 110435Z 00000KT 10SM BKN006 BKN023 OVC029 M01/M02 A2955 RMK AO1

10-Day Weather Forecast

Almanac

Astronomy

Feb. 10, 2016 Rise Set
Actual Time
Civil Twilight
Nautical Twilight
Astronomical Twilight
Moon
Length of Visible Light
Length of Day
Tomorrow will be .
, % of the Moon is Illuminated

Today's Extremes

State Highs State Lows

Community

WunderPhotos

Upload Photos

1,892,014 photos uploaded!

WunderBlog® & News

Nearby

Air Quality

  Air Quality AQ Index Pollutant
Not available.

Snow Depth

Station Depth Elevation

Earthquake Activity

City Distance Mag. Time & Date
Minimum magnitude displayed is 2.5.

Coastal Water Temperatures

Place Temperature

Stations

Nearby Weather Stations

Station Location Temp. Windchill Dew Point Humidity Wind Precip. Elev Updated Type
                   

Watches & Warnings

There are currently no watches in effect.